EGYP

Mount Pleasant Airport

Mount Pleasant, Falkland Islands
TAF EGYP 221338Z 2215/2309 27015G25KT 9999 FEW020 TEMPO 2215/2224 26025G35KT 4500 SHGS BKN020CB BECMG 2222/2301 24015KT PROB40 TEMPO 2300/2307 23025G35KT 5000 SHRA BKN024CB PROB30 TEMPO 2307/2309 23020G30KT -SHRA SCT024
Issued Valid From Valid To
Jan-22 @ 13:38 UTC
(3 hours ago)
Jan-22 @ 15:00 UTC
(2 hours ago)
Jan-23 @ 09:00 UTC
(in 16 hours)
Jan-22 @ 15:00 to Jan-22 @ 22:00
TAF EGYP 221338Z 2215/2309 27015G25KT 9999 FEW020
Wind Visibility Clouds
270° at 15 knots
 Gusting to 25 knots
10,000+ meters
  • Few at 2,000' AGL
Temporary Jan-22 @ 15:00 to Jan-23 @ 00:00
TEMPO 2215/2224 26025G35KT 4500 SHGS BKN020CB
Wind Visibility Clouds Conditions
260° at 25 knots
 Gusting to 35 knots
4,506 meters
  • Broken at 2,000' AGL
  • Small hail
Becoming Jan-22 @ 22:00 to Jan-23 @ 09:00
BECMG 2222/2301 24015KT
Wind Visibility Clouds
240° at 15 knots 10,000+ meters
  • Few at 2,000' AGL
Temporary  (Probability 40%) Jan-23 @ 00:00 to Jan-23 @ 07:00
PROB40 TEMPO 2300/2307 23025G35KT 5000 SHRA BKN024CB
Wind Visibility Clouds Conditions
230° at 25 knots
 Gusting to 35 knots
5,005 meters
  • Broken at 2,400' AGL
  • Rain
Temporary  (Probability 30%) Jan-23 @ 07:00 to Jan-23 @ 09:00
PROB30 TEMPO 2307/2309 23020G30KT -SHRA SCT024
Wind Clouds Conditions
230° at 20 knots
 Gusting to 30 knots
  • Scattered at 2,400' AGL
  • Light Rain
TAF EGYP 221338Z 2215/2309 27015G25KT 9999 FEW020 TEMPO 2215/2224 26025G35KT 4500 SHGS BKN020CB BECMG 2222/2301 24015KT PROB40 TEMPO 2300/2307 23025G35KT 5000 SHRA BKN024CB PROB30 TEMPO 2307/2309 23020G30KT -SHRA SCT024
Issued Jan-22 @ 13:38 UTC
(3 hours ago)
Valid From Jan-22 @ 15:00 UTC
(2 hours ago)
Valid To Jan-23 @ 09:00 UTC
(in 16 hours)
Jan-22 @ 15:00 - Jan-22 @ 22:00
Wind Visibility
270° at 15 knots
 Gusting to 25 knots
10,000+ meters
Clouds
  • Few at 2,000' AGL
Temporary Jan-22 @ 15:00 - Jan-23 @ 00:00
Wind Visibility
260° at 25 knots
 Gusting to 35 knots
4,506 meters
Clouds
  • Broken at 2,000' AGL
Conditions
  • Small hail
Becoming Jan-22 @ 22:00 - Jan-23 @ 09:00
Wind Visibility
240° at 15 knots 10,000+ meters
Clouds
  • Few at 2,000' AGL
Probability 40% Temporary Jan-23 @ 00:00 - Jan-23 @ 07:00
Wind Visibility
230° at 25 knots
 Gusting to 35 knots
5,005 meters
Clouds
  • Broken at 2,400' AGL
Conditions
  • Rain
Probability 30% Temporary Jan-23 @ 07:00 - Jan-23 @ 09:00
Wind
230° at 20 knots
 Gusting to 30 knots
Clouds
  • Scattered at 2,400' AGL
Conditions
  • Light Rain